sensor_id;sensor_type;location;lat;lon;timestamp;temperature;humidity
8591;DHT22;4333;48.322;14.340;2022-07-29T00:02:11;19.70;99.90
8591;DHT22;4333;48.322;14.340;2022-07-29T00:04:39;19.60;99.90
8591;DHT22;4333;48.322;14.340;2022-07-29T00:07:05;19.60;99.90
8591;DHT22;4333;48.322;14.340;2022-07-29T00:09:31;19.70;99.90
8591;DHT22;4333;48.322;14.340;2022-07-29T00:12:00;19.90;99.90
8591;DHT22;4333;48.322;14.340;2022-07-29T00:14:26;19.90;99.90
8591;DHT22;4333;48.322;14.340;2022-07-29T00:16:52;19.90;99.90
8591;DHT22;4333;48.322;14.340;2022-07-29T00:19:18;20.00;99.90
8591;DHT22;4333;48.322;14.340;2022-07-29T00:21:44;20.00;99.90
8591;DHT22;4333;48.322;14.340;2022-07-29T00:24:10;20.00;99.90
8591;DHT22;4333;48.322;14.340;2022-07-29T00:26:36;20.00;99.90
8591;DHT22;4333;48.322;14.340;2022-07-29T00:29:03;19.90;99.90
8591;DHT22;4333;48.322;14.340;2022-07-29T00:31:29;19.80;99.90
8591;DHT22;4333;48.322;14.340;2022-07-29T00:33:55;19.60;99.90
8591;DHT22;4333;48.322;14.340;2022-07-29T00:36:21;19.60;99.90
8591;DHT22;4333;48.322;14.340;2022-07-29T00:38:49;19.40;99.90
8591;DHT22;4333;48.322;14.340;2022-07-29T00:41:15;19.30;99.90
8591;DHT22;4333;48.322;14.340;2022-07-29T00:43:41;19.20;99.90
8591;DHT22;4333;48.322;14.340;2022-07-29T00:46:07;19.30;99.90
8591;DHT22;4333;48.322;14.340;2022-07-29T00:48:33;19.30;99.90
8591;DHT22;4333;48.322;14.340;2022-07-29T00:51:00;19.10;99.90
8591;DHT22;4333;48.322;14.340;2022-07-29T00:53:29;19.10;99.90
8591;DHT22;4333;48.322;14.340;2022-07-29T00:55:54;19.30;99.90
8591;DHT22;4333;48.322;14.340;2022-07-29T00:58:21;19.30;99.90
8591;DHT22;4333;48.322;14.340;2022-07-29T01:00:49;19.30;99.90
8591;DHT22;4333;48.322;14.340;2022-07-29T01:03:16;19.20;99.90
8591;DHT22;4333;48.322;14.340;2022-07-29T01:05:43;19.10;99.90
8591;DHT22;4333;48.322;14.340;2022-07-29T01:08:11;19.00;99.90
8591;DHT22;4333;48.322;14.340;2022-07-29T01:10:39;18.80;99.90
8591;DHT22;4333;48.322;14.340;2022-07-29T01:13:07;18.80;99.90
8591;DHT22;4333;48.322;14.340;2022-07-29T01:15:43;18.80;99.90
8591;DHT22;4333;48.322;14.340;2022-07-29T01:18:20;18.80;99.90
8591;DHT22;4333;48.322;14.340;2022-07-29T01:26:56;18.80;99.90
8591;DHT22;4333;48.322;14.340;2022-07-29T01:29:38;18.70;99.90
8591;DHT22;4333;48.322;14.340;2022-07-29T01:32:20;18.70;99.90
8591;DHT22;4333;48.322;14.340;2022-07-29T01:35:14;18.60;99.90
8591;DHT22;4333;48.322;14.340;2022-07-29T01:40:22;18.50;99.90
8591;DHT22;4333;48.322;14.340;2022-07-29T01:42:52;18.70;99.90
8591;DHT22;4333;48.322;14.340;2022-07-29T01:45:38;18.70;99.90
8591;DHT22;4333;48.322;14.340;2022-07-29T01:48:16;18.60;99.90
8591;DHT22;4333;48.322;14.340;2022-07-29T01:50:49;18.60;99.90
8591;DHT22;4333;48.322;14.340;2022-07-29T01:53:42;18.80;99.90
8591;DHT22;4333;48.322;14.340;2022-07-29T01:56:10;18.80;99.90
8591;DHT22;4333;48.322;14.340;2022-07-29T01:58:39;19.00;99.90
8591;DHT22;4333;48.322;14.340;2022-07-29T02:01:06;19.00;99.90
8591;DHT22;4333;48.322;14.340;2022-07-29T02:03:35;19.00;99.90
8591;DHT22;4333;48.322;14.340;2022-07-29T02:06:03;19.10;99.90
8591;DHT22;4333;48.322;14.340;2022-07-29T02:08:30;19.10;99.90
8591;DHT22;4333;48.322;14.340;2022-07-29T02:10:58;19.20;99.90
8591;DHT22;4333;48.322;14.340;2022-07-29T02:13:26;19.10;99.90
8591;DHT22;4333;48.322;14.340;2022-07-29T02:15:53;19.10;99.90
8591;DHT22;4333;48.322;14.340;2022-07-29T02:18:22;19.10;99.90
8591;DHT22;4333;48.322;14.340;2022-07-29T02:20:52;19.00;99.90
8591;DHT22;4333;48.322;14.340;2022-07-29T02:23:22;18.90;99.90
8591;DHT22;4333;48.322;14.340;2022-07-29T02:25:50;18.80;99.90
8591;DHT22;4333;48.322;14.340;2022-07-29T02:28:17;18.80;99.90
8591;DHT22;4333;48.322;14.340;2022-07-29T02:30:47;18.80;99.90
8591;DHT22;4333;48.322;14.340;2022-07-29T02:33:16;18.80;99.90
8591;DHT22;4333;48.322;14.340;2022-07-29T02:35:45;18.90;99.90
8591;DHT22;4333;48.322;14.340;2022-07-29T02:38:14;19.00;99.90
8591;DHT22;4333;48.322;14.340;2022-07-29T02:41:03;19.00;99.90
8591;DHT22;4333;48.322;14.340;2022-07-29T02:43:30;19.10;99.90
8591;DHT22;4333;48.322;14.340;2022-07-29T02:45:59;19.10;99.90
8591;DHT22;4333;48.322;14.340;2022-07-29T02:48:34;19.10;99.90
8591;DHT22;4333;48.322;14.340;2022-07-29T02:51:09;19.00;99.90
8591;DHT22;4333;48.322;14.340;2022-07-29T02:53:37;19.00;99.90
8591;DHT22;4333;48.322;14.340;2022-07-29T02:56:11;18.80;99.90
8591;DHT22;4333;48.322;14.340;2022-07-29T02:58:41;18.80;99.90
8591;DHT22;4333;48.322;14.340;2022-07-29T03:01:30;18.70;99.90
8591;DHT22;4333;48.322;14.340;2022-07-29T03:04:00;18.80;99.90
8591;DHT22;4333;48.322;14.340;2022-07-29T03:06:27;18.80;99.90
8591;DHT22;4333;48.322;14.340;2022-07-29T03:08:55;18.80;99.90
8591;DHT22;4333;48.322;14.340;2022-07-29T03:11:23;18.80;99.90
8591;DHT22;4333;48.322;14.340;2022-07-29T03:13:50;18.80;99.90
8591;DHT22;4333;48.322;14.340;2022-07-29T03:16:16;18.80;99.90
8591;DHT22;4333;48.322;14.340;2022-07-29T03:18:43;18.70;99.90
8591;DHT22;4333;48.322;14.340;2022-07-29T03:21:09;18.70;99.90
8591;DHT22;4333;48.322;14.340;2022-07-29T03:23:35;18.60;99.90
8591;DHT22;4333;48.322;14.340;2022-07-29T03:26:01;18.60;99.90
8591;DHT22;4333;48.322;14.340;2022-07-29T03:28:27;18.60;99.90
8591;DHT22;4333;48.322;14.340;2022-07-29T03:30:53;18.60;99.90
8591;DHT22;4333;48.322;14.340;2022-07-29T03:33:19;18.70;99.90
8591;DHT22;4333;48.322;14.340;2022-07-29T03:35:45;18.70;99.90
8591;DHT22;4333;48.322;14.340;2022-07-29T03:38:11;18.80;99.90
8591;DHT22;4333;48.322;14.340;2022-07-29T03:40:56;18.70;99.90
8591;DHT22;4333;48.322;14.340;2022-07-29T03:43:29;18.70;99.90
8591;DHT22;4333;48.322;14.340;2022-07-29T03:45:57;18.80;99.90
8591;DHT22;4333;48.322;14.340;2022-07-29T03:48:26;18.80;99.90
8591;DHT22;4333;48.322;14.340;2022-07-29T03:50:55;18.80;99.90
8591;DHT22;4333;48.322;14.340;2022-07-29T03:53:21;18.80;99.90
8591;DHT22;4333;48.322;14.340;2022-07-29T03:55:52;18.80;99.90
8591;DHT22;4333;48.322;14.340;2022-07-29T03:58:19;18.60;99.90
8591;DHT22;4333;48.322;14.340;2022-07-29T04:00:46;18.60;99.90
8591;DHT22;4333;48.322;14.340;2022-07-29T04:03:12;18.60;99.90
8591;DHT22;4333;48.322;14.340;2022-07-29T04:05:39;18.60;99.90
8591;DHT22;4333;48.322;14.340;2022-07-29T04:08:05;18.60;99.90
8591;DHT22;4333;48.322;14.340;2022-07-29T04:10:31;18.70;99.90
8591;DHT22;4333;48.322;14.340;2022-07-29T04:12:59;18.70;99.90
8591;DHT22;4333;48.322;14.340;2022-07-29T04:15:25;18.70;99.90
8591;DHT22;4333;48.322;14.340;2022-07-29T04:17:51;18.70;99.90
8591;DHT22;4333;48.322;14.340;2022-07-29T04:20:16;18.60;99.90
8591;DHT22;4333;48.322;14.340;2022-07-29T04:22:42;18.50;99.90
8591;DHT22;4333;48.322;14.340;2022-07-29T04:25:11;18.60;99.90
8591;DHT22;4333;48.322;14.340;2022-07-29T04:27:36;18.50;99.90
8591;DHT22;4333;48.322;14.340;2022-07-29T04:30:24;18.60;99.90
8591;DHT22;4333;48.322;14.340;2022-07-29T04:32:50;18.70;99.90
8591;DHT22;4333;48.322;14.340;2022-07-29T04:35:16;18.80;99.90
8591;DHT22;4333;48.322;14.340;2022-07-29T04:37:41;18.90;99.90
8591;DHT22;4333;48.322;14.340;2022-07-29T04:40:09;19.00;99.90
8591;DHT22;4333;48.322;14.340;2022-07-29T04:42:35;19.10;99.90
8591;DHT22;4333;48.322;14.340;2022-07-29T04:45:00;19.10;99.90
8591;DHT22;4333;48.322;14.340;2022-07-29T04:47:26;19.10;99.90
8591;DHT22;4333;48.322;14.340;2022-07-29T04:49:57;19.10;99.90
8591;DHT22;4333;48.322;14.340;2022-07-29T04:52:23;19.10;99.90
8591;DHT22;4333;48.322;14.340;2022-07-29T04:54:49;19.20;99.90
8591;DHT22;4333;48.322;14.340;2022-07-29T04:57:15;19.20;99.90
8591;DHT22;4333;48.322;14.340;2022-07-29T04:59:41;19.20;99.90
8591;DHT22;4333;48.322;14.340;2022-07-29T05:02:06;19.20;99.90
8591;DHT22;4333;48.322;14.340;2022-07-29T05:04:32;19.20;99.90
8591;DHT22;4333;48.322;14.340;2022-07-29T05:06:58;19.20;99.90
8591;DHT22;4333;48.322;14.340;2022-07-29T05:09:24;19.20;99.90
8591;DHT22;4333;48.322;14.340;2022-07-29T05:11:50;19.20;99.90
8591;DHT22;4333;48.322;14.340;2022-07-29T05:14:15;19.30;99.90
8591;DHT22;4333;48.322;14.340;2022-07-29T05:16:41;19.10;99.90
8591;DHT22;4333;48.322;14.340;2022-07-29T05:19:07;19.10;99.90
8591;DHT22;4333;48.322;14.340;2022-07-29T05:21:33;19.10;99.90
8591;DHT22;4333;48.322;14.340;2022-07-29T05:23:59;19.20;99.90
8591;DHT22;4333;48.322;14.340;2022-07-29T05:26:25;19.30;99.90
8591;DHT22;4333;48.322;14.340;2022-07-29T05:28:51;19.40;99.90
8591;DHT22;4333;48.322;14.340;2022-07-29T05:31:17;19.40;99.90
8591;DHT22;4333;48.322;14.340;2022-07-29T05:33:43;19.50;99.90
8591;DHT22;4333;48.322;14.340;2022-07-29T05:36:11;19.60;99.90
8591;DHT22;4333;48.322;14.340;2022-07-29T05:38:38;19.50;99.90
8591;DHT22;4333;48.322;14.340;2022-07-29T05:41:04;19.50;99.90
8591;DHT22;4333;48.322;14.340;2022-07-29T05:43:30;19.60;99.90
8591;DHT22;4333;48.322;14.340;2022-07-29T05:45:57;19.80;99.90
8591;DHT22;4333;48.322;14.340;2022-07-29T05:48:23;19.80;99.90
8591;DHT22;4333;48.322;14.340;2022-07-29T05:50:49;19.90;99.90
8591;DHT22;4333;48.322;14.340;2022-07-29T05:53:15;20.00;99.90
8591;DHT22;4333;48.322;14.340;2022-07-29T05:55:41;20.10;99.90
8591;DHT22;4333;48.322;14.340;2022-07-29T05:58:07;20.20;99.90
8591;DHT22;4333;48.322;14.340;2022-07-29T06:00:33;20.20;99.90
8591;DHT22;4333;48.322;14.340;2022-07-29T06:02:59;20.30;99.90
8591;DHT22;4333;48.322;14.340;2022-07-29T06:05:24;20.40;99.90
8591;DHT22;4333;48.322;14.340;2022-07-29T06:07:52;20.30;99.90
8591;DHT22;4333;48.322;14.340;2022-07-29T06:10:18;20.40;99.90
8591;DHT22;4333;48.322;14.340;2022-07-29T06:12:44;20.20;99.90
8591;DHT22;4333;48.322;14.340;2022-07-29T06:15:10;20.20;99.90
8591;DHT22;4333;48.322;14.340;2022-07-29T06:17:36;20.30;99.90
8591;DHT22;4333;48.322;14.340;2022-07-29T06:20:03;20.30;99.90
8591;DHT22;4333;48.322;14.340;2022-07-29T06:22:29;20.40;99.90
8591;DHT22;4333;48.322;14.340;2022-07-29T06:24:55;20.50;99.90
8591;DHT22;4333;48.322;14.340;2022-07-29T06:27:21;20.50;99.90
8591;DHT22;4333;48.322;14.340;2022-07-29T06:29:46;20.50;99.90
8591;DHT22;4333;48.322;14.340;2022-07-29T06:32:14;20.70;99.90
8591;DHT22;4333;48.322;14.340;2022-07-29T06:34:42;20.70;99.90
8591;DHT22;4333;48.322;14.340;2022-07-29T06:37:08;20.90;99.90
8591;DHT22;4333;48.322;14.340;2022-07-29T06:39:37;21.00;99.90
8591;DHT22;4333;48.322;14.340;2022-07-29T06:42:06;21.20;99.90
8591;DHT22;4333;48.322;14.340;2022-07-29T06:44:32;21.40;99.90
8591;DHT22;4333;48.322;14.340;2022-07-29T06:47:04;21.30;99.90
8591;DHT22;4333;48.322;14.340;2022-07-29T06:49:30;21.30;99.90
8591;DHT22;4333;48.322;14.340;2022-07-29T06:51:56;21.30;99.90
8591;DHT22;4333;48.322;14.340;2022-07-29T06:54:21;21.30;99.90
8591;DHT22;4333;48.322;14.340;2022-07-29T06:56:48;21.30;99.90
8591;DHT22;4333;48.322;14.340;2022-07-29T06:59:16;21.30;99.90
8591;DHT22;4333;48.322;14.340;2022-07-29T07:01:44;21.30;99.90
8591;DHT22;4333;48.322;14.340;2022-07-29T07:04:13;21.30;99.90
8591;DHT22;4333;48.322;14.340;2022-07-29T07:06:39;21.30;99.90
8591;DHT22;4333;48.322;14.340;2022-07-29T07:09:05;21.40;99.90
8591;DHT22;4333;48.322;14.340;2022-07-29T07:11:31;21.40;99.90
8591;DHT22;4333;48.322;14.340;2022-07-29T07:13:57;21.50;99.90
8591;DHT22;4333;48.322;14.340;2022-07-29T07:16:22;21.50;99.90
8591;DHT22;4333;48.322;14.340;2022-07-29T07:18:48;21.60;99.90
8591;DHT22;4333;48.322;14.340;2022-07-29T07:21:14;21.70;99.90
8591;DHT22;4333;48.322;14.340;2022-07-29T07:23:40;21.60;99.90
8591;DHT22;4333;48.322;14.340;2022-07-29T07:26:05;21.60;99.90
8591;DHT22;4333;48.322;14.340;2022-07-29T07:28:34;21.50;99.90
8591;DHT22;4333;48.322;14.340;2022-07-29T07:30:59;21.50;99.90
8591;DHT22;4333;48.322;14.340;2022-07-29T07:33:25;21.40;99.90
8591;DHT22;4333;48.322;14.340;2022-07-29T07:35:51;21.30;99.90
8591;DHT22;4333;48.322;14.340;2022-07-29T07:38:17;21.30;99.90
8591;DHT22;4333;48.322;14.340;2022-07-29T07:40:42;21.20;99.90
8591;DHT22;4333;48.322;14.340;2022-07-29T07:43:08;21.10;99.90
8591;DHT22;4333;48.322;14.340;2022-07-29T07:45:34;21.10;99.90
8591;DHT22;4333;48.322;14.340;2022-07-29T07:48:02;21.00;99.90
8591;DHT22;4333;48.322;14.340;2022-07-29T07:50:28;21.00;99.90
8591;DHT22;4333;48.322;14.340;2022-07-29T07:52:56;21.00;99.90
8591;DHT22;4333;48.322;14.340;2022-07-29T07:55:23;21.00;99.90
8591;DHT22;4333;48.322;14.340;2022-07-29T07:57:49;21.00;99.90
8591;DHT22;4333;48.322;14.340;2022-07-29T08:00:16;20.90;99.90
8591;DHT22;4333;48.322;14.340;2022-07-29T08:02:42;20.90;99.90
8591;DHT22;4333;48.322;14.340;2022-07-29T08:05:11;20.80;99.90
8591;DHT22;4333;48.322;14.340;2022-07-29T08:07:39;20.90;99.90
8591;DHT22;4333;48.322;14.340;2022-07-29T08:10:05;21.10;99.90
8591;DHT22;4333;48.322;14.340;2022-07-29T08:12:33;21.30;99.90
8591;DHT22;4333;48.322;14.340;2022-07-29T08:14:59;21.50;99.90
8591;DHT22;4333;48.322;14.340;2022-07-29T08:17:25;21.70;99.90
8591;DHT22;4333;48.322;14.340;2022-07-29T08:19:52;21.70;99.90
8591;DHT22;4333;48.322;14.340;2022-07-29T08:22:17;21.80;99.90
8591;DHT22;4333;48.322;14.340;2022-07-29T08:24:43;21.80;99.90
8591;DHT22;4333;48.322;14.340;2022-07-29T08:27:10;21.80;99.90
8591;DHT22;4333;48.322;14.340;2022-07-29T08:29:36;21.80;99.90
8591;DHT22;4333;48.322;14.340;2022-07-29T08:32:03;21.70;99.90
8591;DHT22;4333;48.322;14.340;2022-07-29T08:34:29;21.70;99.90
8591;DHT22;4333;48.322;14.340;2022-07-29T08:36:56;22.00;99.90
8591;DHT22;4333;48.322;14.340;2022-07-29T08:39:22;22.10;99.90
8591;DHT22;4333;48.322;14.340;2022-07-29T08:41:51;22.40;99.90
8591;DHT22;4333;48.322;14.340;2022-07-29T08:44:18;22.60;99.90
8591;DHT22;4333;48.322;14.340;2022-07-29T08:46:44;22.70;99.90
8591;DHT22;4333;48.322;14.340;2022-07-29T08:49:10;22.80;99.90
8591;DHT22;4333;48.322;14.340;2022-07-29T08:51:38;22.90;99.90
8591;DHT22;4333;48.322;14.340;2022-07-29T08:54:05;22.80;99.90
8591;DHT22;4333;48.322;14.340;2022-07-29T08:56:31;22.80;99.90
8591;DHT22;4333;48.322;14.340;2022-07-29T08:58:58;22.70;99.90
8591;DHT22;4333;48.322;14.340;2022-07-29T09:01:26;22.60;99.90
8591;DHT22;4333;48.322;14.340;2022-07-29T09:03:55;22.40;99.90
8591;DHT22;4333;48.322;14.340;2022-07-29T09:06:22;22.30;99.90
8591;DHT22;4333;48.322;14.340;2022-07-29T09:08:54;22.20;99.90
8591;DHT22;4333;48.322;14.340;2022-07-29T09:11:24;22.30;99.90
8591;DHT22;4333;48.322;14.340;2022-07-29T09:13:49;22.30;99.90
8591;DHT22;4333;48.322;14.340;2022-07-29T09:16:15;22.30;99.90
8591;DHT22;4333;48.322;14.340;2022-07-29T09:18:43;22.30;99.90
8591;DHT22;4333;48.322;14.340;2022-07-29T09:21:14;22.50;99.90
8591;DHT22;4333;48.322;14.340;2022-07-29T09:24:13;22.70;99.90
8591;DHT22;4333;48.322;14.340;2022-07-29T09:26:42;23.00;99.90
8591;DHT22;4333;48.322;14.340;2022-07-29T09:29:19;23.00;99.90
8591;DHT22;4333;48.322;14.340;2022-07-29T09:31:47;23.00;99.90
8591;DHT22;4333;48.322;14.340;2022-07-29T09:34:16;23.10;99.90
8591;DHT22;4333;48.322;14.340;2022-07-29T09:36:47;23.10;99.90
8591;DHT22;4333;48.322;14.340;2022-07-29T09:39:16;23.40;99.90
8591;DHT22;4333;48.322;14.340;2022-07-29T09:41:55;23.70;99.90
8591;DHT22;4333;48.322;14.340;2022-07-29T09:44:24;24.10;99.90
8591;DHT22;4333;48.322;14.340;2022-07-29T09:46:57;24.40;99.90
8591;DHT22;4333;48.322;14.340;2022-07-29T09:49:24;24.70;98.50
8591;DHT22;4333;48.322;14.340;2022-07-29T09:52:19;24.70;97.70
8591;DHT22;4333;48.322;14.340;2022-07-29T09:54:45;24.70;95.90
8591;DHT22;4333;48.322;14.340;2022-07-29T09:57:28;24.80;95.70
8591;DHT22;4333;48.322;14.340;2022-07-29T10:00:20;25.00;95.20
8591;DHT22;4333;48.322;14.340;2022-07-29T10:02:46;25.20;94.10
8591;DHT22;4333;48.322;14.340;2022-07-29T10:05:25;25.40;93.70
8591;DHT22;4333;48.322;14.340;2022-07-29T10:07:57;25.20;96.20
8591;DHT22;4333;48.322;14.340;2022-07-29T10:10:28;25.00;97.00
8591;DHT22;4333;48.322;14.340;2022-07-29T10:13:11;25.00;97.60
8591;DHT22;4333;48.322;14.340;2022-07-29T10:15:40;25.20;95.70
8591;DHT22;4333;48.322;14.340;2022-07-29T10:18:07;25.30;94.70
8591;DHT22;4333;48.322;14.340;2022-07-29T10:20:34;25.40;96.40
8591;DHT22;4333;48.322;14.340;2022-07-29T10:23:00;25.60;94.90
8591;DHT22;4333;48.322;14.340;2022-07-29T10:25:26;26.00;94.50
8591;DHT22;4333;48.322;14.340;2022-07-29T10:27:53;26.40;93.40
8591;DHT22;4333;48.322;14.340;2022-07-29T10:30:25;26.40;91.80
8591;DHT22;4333;48.322;14.340;2022-07-29T10:36:38;26.30;89.60
8591;DHT22;4333;48.322;14.340;2022-07-29T10:42:02;25.90;91.80
8591;DHT22;4333;48.322;14.340;2022-07-29T10:44:32;26.10;93.50
8591;DHT22;4333;48.322;14.340;2022-07-29T10:46:58;26.40;92.20
8591;DHT22;4333;48.322;14.340;2022-07-29T10:49:27;27.00;92.10
8591;DHT22;4333;48.322;14.340;2022-07-29T10:52:06;27.70;90.60
8591;DHT22;4333;48.322;14.340;2022-07-29T10:57:27;28.70;85.80
8591;DHT22;4333;48.322;14.340;2022-07-29T11:05:12;29.00;75.90
8591;DHT22;4333;48.322;14.340;2022-07-29T11:10:25;29.00;75.50
8591;DHT22;4333;48.322;14.340;2022-07-29T11:12:51;29.40;78.50
8591;DHT22;4333;48.322;14.340;2022-07-29T11:15:20;29.70;73.70
8591;DHT22;4333;48.322;14.340;2022-07-29T11:26:19;29.40;67.80
8591;DHT22;4333;48.322;14.340;2022-07-29T11:29:16;29.20;68.70
8591;DHT22;4333;48.322;14.340;2022-07-29T11:31:45;29.00;68.50
8591;DHT22;4333;48.322;14.340;2022-07-29T11:34:18;28.80;72.70
8591;DHT22;4333;48.322;14.340;2022-07-29T11:39:33;27.70;74.70
8591;DHT22;4333;48.322;14.340;2022-07-29T11:47:41;27.90;76.60
8591;DHT22;4333;48.322;14.340;2022-07-29T11:50:12;27.90;82.00
8591;DHT22;4333;48.322;14.340;2022-07-29T11:52:40;28.80;79.10
8591;DHT22;4333;48.322;14.340;2022-07-29T11:55:13;28.80;67.30
8591;DHT22;4333;48.322;14.340;2022-07-29T11:57:51;29.40;68.60
8591;DHT22;4333;48.322;14.340;2022-07-29T12:00:47;29.70;64.30
8591;DHT22;4333;48.322;14.340;2022-07-29T12:03:27;30.00;61.10
8591;DHT22;4333;48.322;14.340;2022-07-29T12:05:53;30.20;59.70
8591;DHT22;4333;48.322;14.340;2022-07-29T12:08:21;30.40;58.80
8591;DHT22;4333;48.322;14.340;2022-07-29T12:10:49;30.20;57.60
8591;DHT22;4333;48.322;14.340;2022-07-29T12:13:18;30.10;57.20
8591;DHT22;4333;48.322;14.340;2022-07-29T12:15:55;30.40;59.40
8591;DHT22;4333;48.322;14.340;2022-07-29T12:18:28;30.80;59.20
8591;DHT22;4333;48.322;14.340;2022-07-29T12:21:01;30.80;55.10
8591;DHT22;4333;48.322;14.340;2022-07-29T12:23:33;30.20;54.70
8591;DHT22;4333;48.322;14.340;2022-07-29T12:26:05;30.10;57.40
8591;DHT22;4333;48.322;14.340;2022-07-29T12:28:37;30.00;57.40
8591;DHT22;4333;48.322;14.340;2022-07-29T12:31:04;29.60;53.80
8591;DHT22;4333;48.322;14.340;2022-07-29T12:33:30;29.20;56.70
8591;DHT22;4333;48.322;14.340;2022-07-29T12:35:58;29.20;57.10
8591;DHT22;4333;48.322;14.340;2022-07-29T12:38:25;29.00;57.50
8591;DHT22;4333;48.322;14.340;2022-07-29T12:40:54;29.50;56.00
8591;DHT22;4333;48.322;14.340;2022-07-29T12:43:22;29.40;54.70
8591;DHT22;4333;48.322;14.340;2022-07-29T12:45:53;29.10;54.70
8591;DHT22;4333;48.322;14.340;2022-07-29T12:48:42;28.90;55.70
8591;DHT22;4333;48.322;14.340;2022-07-29T12:51:08;28.60;57.20
8591;DHT22;4333;48.322;14.340;2022-07-29T12:53:36;29.10;57.30
8591;DHT22;4333;48.322;14.340;2022-07-29T12:56:03;29.50;53.10
8591;DHT22;4333;48.322;14.340;2022-07-29T12:58:33;29.30;54.50
8591;DHT22;4333;48.322;14.340;2022-07-29T13:03:25;29.60;54.10
8591;DHT22;4333;48.322;14.340;2022-07-29T13:05:51;29.50;53.50
8591;DHT22;4333;48.322;14.340;2022-07-29T13:08:18;29.30;49.50
8591;DHT22;4333;48.322;14.340;2022-07-29T13:10:45;29.00;48.80
8591;DHT22;4333;48.322;14.340;2022-07-29T13:13:15;29.10;50.20
8591;DHT22;4333;48.322;14.340;2022-07-29T13:15:44;29.30;51.10
8591;DHT22;4333;48.322;14.340;2022-07-29T13:18:29;30.30;50.40
8591;DHT22;4333;48.322;14.340;2022-07-29T13:20:56;31.00;46.60
8591;DHT22;4333;48.322;14.340;2022-07-29T13:23:22;31.50;43.60
8591;DHT22;4333;48.322;14.340;2022-07-29T13:25:48;32.10;42.00
8591;DHT22;4333;48.322;14.340;2022-07-29T13:28:13;32.20;40.90
8591;DHT22;4333;48.322;14.340;2022-07-29T13:30:41;31.80;40.30
8591;DHT22;4333;48.322;14.340;2022-07-29T13:33:08;31.80;41.80
8591;DHT22;4333;48.322;14.340;2022-07-29T13:35:33;31.80;38.00
8591;DHT22;4333;48.322;14.340;2022-07-29T13:37:59;32.10;39.60
8591;DHT22;4333;48.322;14.340;2022-07-29T13:40:25;32.50;36.40
8591;DHT22;4333;48.322;14.340;2022-07-29T13:42:56;32.90;36.20
8591;DHT22;4333;48.322;14.340;2022-07-29T13:45:22;33.10;35.30
8591;DHT22;4333;48.322;14.340;2022-07-29T13:47:48;33.20;32.60
8591;DHT22;4333;48.322;14.340;2022-07-29T13:50:14;33.20;32.80
8591;DHT22;4333;48.322;14.340;2022-07-29T13:52:39;33.30;31.80
8591;DHT22;4333;48.322;14.340;2022-07-29T13:55:06;33.10;35.00
8591;DHT22;4333;48.322;14.340;2022-07-29T13:57:32;33.10;30.60
8591;DHT22;4333;48.322;14.340;2022-07-29T13:59:58;32.90;29.20
8591;DHT22;4333;48.322;14.340;2022-07-29T14:02:26;32.80;31.40
8591;DHT22;4333;48.322;14.340;2022-07-29T14:04:54;33.00;31.10
8591;DHT22;4333;48.322;14.340;2022-07-29T14:07:22;32.90;30.00
8591;DHT22;4333;48.322;14.340;2022-07-29T14:09:48;32.80;26.70
8591;DHT22;4333;48.322;14.340;2022-07-29T14:12:14;32.40;27.80
8591;DHT22;4333;48.322;14.340;2022-07-29T14:14:40;32.70;29.10
8591;DHT22;4333;48.322;14.340;2022-07-29T14:17:06;32.90;24.80
8591;DHT22;4333;48.322;14.340;2022-07-29T14:19:32;33.00;22.50
8591;DHT22;4333;48.322;14.340;2022-07-29T14:22:02;33.30;23.20
8591;DHT22;4333;48.322;14.340;2022-07-29T14:24:28;33.10;22.90
8591;DHT22;4333;48.322;14.340;2022-07-29T14:26:56;33.20;24.70
8591;DHT22;4333;48.322;14.340;2022-07-29T14:29:22;33.20;24.10
8591;DHT22;4333;48.322;14.340;2022-07-29T14:31:48;33.00;27.60
8591;DHT22;4333;48.322;14.340;2022-07-29T14:34:14;32.70;26.10
8591;DHT22;4333;48.322;14.340;2022-07-29T14:36:42;32.60;29.20
8591;DHT22;4333;48.322;14.340;2022-07-29T14:39:07;32.70;29.90
8591;DHT22;4333;48.322;14.340;2022-07-29T14:41:33;33.00;31.20
8591;DHT22;4333;48.322;14.340;2022-07-29T14:44:01;33.20;30.70
8591;DHT22;4333;48.322;14.340;2022-07-29T14:46:27;32.10;33.40
8591;DHT22;4333;48.322;14.340;2022-07-29T14:48:54;31.10;35.70
8591;DHT22;4333;48.322;14.340;2022-07-29T14:51:24;30.50;38.80
8591;DHT22;4333;48.322;14.340;2022-07-29T14:53:49;30.20;40.10
8591;DHT22;4333;48.322;14.340;2022-07-29T14:56:15;30.00;43.90
8591;DHT22;4333;48.322;14.340;2022-07-29T14:58:44;29.90;43.10
8591;DHT22;4333;48.322;14.340;2022-07-29T15:01:09;29.70;43.50
8591;DHT22;4333;48.322;14.340;2022-07-29T15:03:35;29.80;43.80
8591;DHT22;4333;48.322;14.340;2022-07-29T15:06:01;30.00;44.00
8591;DHT22;4333;48.322;14.340;2022-07-29T15:08:27;29.70;42.10
8591;DHT22;4333;48.322;14.340;2022-07-29T15:10:55;29.80;43.70
8591;DHT22;4333;48.322;14.340;2022-07-29T15:13:23;29.70;44.50
8591;DHT22;4333;48.322;14.340;2022-07-29T15:15:48;29.80;43.00
8591;DHT22;4333;48.322;14.340;2022-07-29T15:18:16;30.00;43.60
8591;DHT22;4333;48.322;14.340;2022-07-29T15:20:42;29.80;44.60
8591;DHT22;4333;48.322;14.340;2022-07-29T15:23:10;29.50;44.80
8591;DHT22;4333;48.322;14.340;2022-07-29T15:25:38;29.20;45.50
8591;DHT22;4333;48.322;14.340;2022-07-29T15:28:04;29.40;45.80
8591;DHT22;4333;48.322;14.340;2022-07-29T15:30:33;29.50;44.70
8591;DHT22;4333;48.322;14.340;2022-07-29T15:32:59;29.70;46.80
8591;DHT22;4333;48.322;14.340;2022-07-29T15:35:28;29.80;46.30
8591;DHT22;4333;48.322;14.340;2022-07-29T15:37:53;29.70;44.00
8591;DHT22;4333;48.322;14.340;2022-07-29T15:40:19;29.60;41.30
8591;DHT22;4333;48.322;14.340;2022-07-29T15:42:45;29.70;45.00
8591;DHT22;4333;48.322;14.340;2022-07-29T15:45:11;29.70;44.20
8591;DHT22;4333;48.322;14.340;2022-07-29T15:47:37;29.70;43.10
8591;DHT22;4333;48.322;14.340;2022-07-29T15:50:03;29.60;44.80
8591;DHT22;4333;48.322;14.340;2022-07-29T15:52:28;29.50;43.80
8591;DHT22;4333;48.322;14.340;2022-07-29T15:54:55;29.60;41.10
8591;DHT22;4333;48.322;14.340;2022-07-29T15:57:21;29.70;41.80
8591;DHT22;4333;48.322;14.340;2022-07-29T15:59:47;29.70;43.70
8591;DHT22;4333;48.322;14.340;2022-07-29T16:02:13;29.50;41.40
8591;DHT22;4333;48.322;14.340;2022-07-29T16:04:39;29.30;43.10
8591;DHT22;4333;48.322;14.340;2022-07-29T16:07:07;29.30;43.00
8591;DHT22;4333;48.322;14.340;2022-07-29T16:09:33;29.20;41.70
8591;DHT22;4333;48.322;14.340;2022-07-29T16:11:59;29.20;42.10
8591;DHT22;4333;48.322;14.340;2022-07-29T16:14:25;29.20;42.10
8591;DHT22;4333;48.322;14.340;2022-07-29T16:16:51;29.30;44.20
8591;DHT22;4333;48.322;14.340;2022-07-29T16:19:16;29.20;41.20
8591;DHT22;4333;48.322;14.340;2022-07-29T16:21:42;29.30;42.60
8591;DHT22;4333;48.322;14.340;2022-07-29T16:24:08;29.20;40.90
8591;DHT22;4333;48.322;14.340;2022-07-29T16:26:34;28.90;42.60
8591;DHT22;4333;48.322;14.340;2022-07-29T16:29:05;28.80;43.80
8591;DHT22;4333;48.322;14.340;2022-07-29T16:31:31;29.00;43.10
8591;DHT22;4333;48.322;14.340;2022-07-29T16:33:56;29.20;42.90
8591;DHT22;4333;48.322;14.340;2022-07-29T16:36:22;29.30;43.30
8591;DHT22;4333;48.322;14.340;2022-07-29T16:38:50;29.30;42.60